createdAt,value
2018-12-19T00:01:08.697Z,49
2018-12-19T00:06:05.670Z,49
2018-12-19T00:11:02.500Z,48.9
2018-12-19T00:15:59.276Z,49
2018-12-19T00:20:55.852Z,48.9
2018-12-19T00:25:52.583Z,49
2018-12-19T00:30:49.036Z,49
2018-12-19T00:35:45.373Z,48.9
2018-12-19T00:40:42.330Z,48.9
2018-12-19T00:45:39.485Z,48.9
2018-12-19T00:50:36.148Z,48.9
2018-12-19T00:55:33.340Z,48.9
2018-12-19T01:00:30.335Z,48.9
2018-12-19T01:05:26.642Z,48.9
2018-12-19T01:10:23.676Z,49
2018-12-19T01:15:20.800Z,49
2018-12-19T01:20:17.269Z,48.9
2018-12-19T01:25:13.976Z,49
2018-12-19T01:30:10.799Z,48.9
2018-12-19T01:35:07.254Z,48.9
2018-12-19T01:40:04.481Z,49
2018-12-19T01:45:00.554Z,48.9
2018-12-19T01:49:57.423Z,48.9
2018-12-19T01:54:54.512Z,48.9
2018-12-19T01:59:51.194Z,48.9
2018-12-19T02:04:48.287Z,48.9
2018-12-19T02:09:44.746Z,48.9
2018-12-19T02:14:41.707Z,48.9
2018-12-19T02:19:38.098Z,48.8
2018-12-19T02:24:35.352Z,48.9
2018-12-19T02:29:32.309Z,48.8
2018-12-19T02:34:29.427Z,48.8
2018-12-19T02:39:26.492Z,48.9
2018-12-19T02:44:23.599Z,48.9
2018-12-19T02:49:20.590Z,48.9
2018-12-19T02:54:17.040Z,48.9
2018-12-19T02:59:13.134Z,48.9
2018-12-19T03:04:10.085Z,48.9
2018-12-19T03:09:06.531Z,48.9
2018-12-19T03:14:03.291Z,48.9
2018-12-19T03:18:59.627Z,48.8
2018-12-19T03:23:56.337Z,48.8
2018-12-19T03:28:53.590Z,48.8
2018-12-19T03:33:50.245Z,48.9
2018-12-19T03:38:47.103Z,48.8
2018-12-19T03:43:43.558Z,48.9
2018-12-19T03:48:40.289Z,48.8
2018-12-19T03:53:36.991Z,48.9
2018-12-19T03:58:34.101Z,48.8
2018-12-19T04:03:31.261Z,48.8
2018-12-19T04:08:28.164Z,48.8
2018-12-19T04:13:24.955Z,48.9
2018-12-19T04:18:22.051Z,48.8
2018-12-19T04:23:18.210Z,48.8
2018-12-19T04:28:15.260Z,48.8
2018-12-19T04:33:11.315Z,48.8
2018-12-19T04:38:08.474Z,48.8
2018-12-19T04:43:04.717Z,48.8
2018-12-19T04:48:01.487Z,48.8
2018-12-19T04:52:57.822Z,48.8
2018-12-19T04:57:55.010Z,48.8
2018-12-19T05:02:52.169Z,48.8
2018-12-19T05:07:49.314Z,48.8
2018-12-19T05:12:46.080Z,48.8
2018-12-19T05:17:43.571Z,48.8
2018-12-19T05:22:40.783Z,48.8
2018-12-19T05:27:37.967Z,48.8
2018-12-19T05:32:34.354Z,48.8
2018-12-19T05:37:31.578Z,48.8
2018-12-19T05:42:28.786Z,48.9
2018-12-19T05:47:25.182Z,48.8
2018-12-19T05:52:23.518Z,48.8
2018-12-19T05:57:20.282Z,48.8
2018-12-19T06:02:17.488Z,48.8
2018-12-19T06:07:14.557Z,48.8
2018-12-19T06:12:11.988Z,48.8
2018-12-19T06:17:08.513Z,48.8
2018-12-19T06:22:05.733Z,48.8
2018-12-19T06:27:02.051Z,48.7
2018-12-19T06:31:58.925Z,48.8
2018-12-19T06:36:56.110Z,48.7
2018-12-19T06:41:53.217Z,48.8
2018-12-19T06:46:49.714Z,48.7
2018-12-19T06:51:46.934Z,48.7
2018-12-19T06:56:44.105Z,48.7
2018-12-19T07:01:41.108Z,48.7
2018-12-19T07:06:37.797Z,48.7
2018-12-19T07:11:35.113Z,48.7
2018-12-19T07:16:32.023Z,48.6
2018-12-19T07:21:28.408Z,48.7
2018-12-19T07:26:25.174Z,48.7
2018-12-19T07:31:21.788Z,48.6
2018-12-19T07:36:19.189Z,48.6
2018-12-19T07:41:15.910Z,48.6
2018-12-19T07:46:12.781Z,48.6
2018-12-19T07:51:10.086Z,48.6
2018-12-19T07:56:07.193Z,48.6
2018-12-19T08:01:04.227Z,48.6
2018-12-19T08:06:00.528Z,48.6
2018-12-19T08:10:57.367Z,48.6
2018-12-19T08:15:54.506Z,48.6
2018-12-19T08:20:51.314Z,48.6
2018-12-19T08:25:48.087Z,48.6
2018-12-19T08:30:44.940Z,48.6
2018-12-19T08:35:42.256Z,48.6
2018-12-19T08:40:39.391Z,48.6
2018-12-19T08:45:36.106Z,48.6
2018-12-19T08:50:32.929Z,48.6
2018-12-19T08:55:29.692Z,48.6
2018-12-19T09:00:27.058Z,48.7
2018-12-19T09:05:23.656Z,48.7
2018-12-19T09:10:20.980Z,48.6
2018-12-19T09:15:17.700Z,48.6
2018-12-19T09:20:14.892Z,48.7
2018-12-19T09:25:12.024Z,48.6
2018-12-19T09:30:09.048Z,48.7
2018-12-19T09:35:05.751Z,48.7
2018-12-19T09:40:03.055Z,48.7
2018-12-19T09:45:00.022Z,48.7
2018-12-19T09:49:57.407Z,48.7
2018-12-19T09:54:54.144Z,48.8
2018-12-19T09:59:51.345Z,48.8
2018-12-19T10:04:48.026Z,48.9
2018-12-19T10:09:45.470Z,48.9
2018-12-19T10:14:42.660Z,48.8
2018-12-19T10:19:39.490Z,48.8
2018-12-19T10:24:36.517Z,48.9
2018-12-19T10:29:33.217Z,48.8
2018-12-19T10:34:30.442Z,48.8
2018-12-19T10:39:27.499Z,48.8
2018-12-19T10:44:24.318Z,48.8
2018-12-19T10:49:21.052Z,48.8
2018-12-19T10:54:17.833Z,48.9
2018-12-19T10:59:15.116Z,48.9
2018-12-19T11:04:11.910Z,48.9
2018-12-19T11:09:08.663Z,49
2018-12-19T11:14:06.026Z,49
2018-12-19T11:19:03.246Z,49
2018-12-19T11:23:59.788Z,49
2018-12-19T11:28:56.766Z,49
2018-12-19T11:33:53.935Z,49
2018-12-19T11:38:50.284Z,49
2018-12-19T11:43:47.459Z,49
2018-12-19T11:48:44.865Z,49
2018-12-19T11:53:41.499Z,49
2018-12-19T11:58:38.732Z,49.1
2018-12-19T12:03:35.494Z,49.1
2018-12-19T12:08:32.634Z,49.1
2018-12-19T12:13:29.748Z,49.1
2018-12-19T12:18:26.646Z,49.1
2018-12-19T12:23:23.383Z,49.2
2018-12-19T12:28:20.390Z,49.2
2018-12-19T12:33:17.754Z,49.2
2018-12-19T12:38:14.416Z,49.2
2018-12-19T12:43:10.615Z,49.2
2018-12-19T12:48:07.337Z,49.2
2018-12-19T12:53:04.099Z,49.2
2018-12-19T12:58:00.978Z,49.2
2018-12-19T13:02:58.277Z,49.2
2018-12-19T13:07:54.795Z,49.2
2018-12-19T13:12:51.366Z,49.2
2018-12-19T13:17:48.132Z,49.2
2018-12-19T13:22:45.364Z,49.3
2018-12-19T13:27:43.209Z,49.3
2018-12-19T13:32:39.848Z,49.3
2018-12-19T13:37:37.282Z,49.3
2018-12-19T13:42:34.703Z,49.3
2018-12-19T13:47:31.840Z,49.3
2018-12-19T13:52:28.952Z,49.3
2018-12-19T13:57:26.191Z,49.3
2018-12-19T14:02:23.127Z,49.3
2018-12-19T14:07:20.243Z,49.3
2018-12-19T14:12:17.479Z,49.3
2018-12-19T14:17:14.126Z,49.3
2018-12-19T14:22:11.442Z,49.3
2018-12-19T14:27:08.237Z,49.3
2018-12-19T14:32:05.157Z,49.4
2018-12-19T14:37:02.144Z,49.5
2018-12-19T14:41:58.580Z,49.5
2018-12-19T14:46:55.958Z,49.5
2018-12-19T14:51:52.929Z,49.6
2018-12-19T14:56:50.133Z,49.6
2018-12-19T15:01:47.301Z,49.6
2018-12-19T15:06:44.021Z,49.6
2018-12-19T15:11:40.687Z,49.6
2018-12-19T15:16:37.534Z,49.6
2018-12-19T15:21:34.731Z,49.6
2018-12-19T15:26:31.640Z,49.6
2018-12-19T15:31:28.820Z,49.6
2018-12-19T15:36:25.849Z,49.6
2018-12-19T15:41:22.789Z,49.6
2018-12-19T15:46:19.933Z,49.6
2018-12-19T15:51:17.354Z,49.6
2018-12-19T15:56:14.402Z,49.6
2018-12-19T16:01:11.500Z,49.5
2018-12-19T16:06:08.282Z,49.5
2018-12-19T16:11:05.648Z,49.5
2018-12-19T16:16:02.803Z,49.5
2018-12-19T16:20:59.348Z,49.5
2018-12-19T16:25:56.226Z,49.5
2018-12-19T16:30:53.079Z,49.5
2018-12-19T16:35:50.404Z,49.6
2018-12-19T16:40:47.212Z,49.5
2018-12-19T16:45:44.262Z,49.6
2018-12-19T16:50:41.426Z,49.6
2018-12-19T16:55:38.641Z,49.6
2018-12-19T17:00:35.974Z,49.6
2018-12-19T17:05:33.149Z,49.6
2018-12-19T17:10:29.284Z,49.6
2018-12-19T17:15:26.467Z,49.6
2018-12-19T17:20:23.109Z,49.6
2018-12-19T17:25:19.905Z,49.6
2018-12-19T17:30:17.385Z,49.6
2018-12-19T17:35:15.010Z,49.6
2018-12-19T17:40:11.886Z,49.6
2018-12-19T17:45:09.710Z,49.6
2018-12-19T17:50:06.506Z,49.6
2018-12-19T17:55:03.382Z,49.6
2018-12-19T18:00:00.593Z,49.6
2018-12-19T18:04:57.630Z,49.6
2018-12-19T18:09:54.493Z,49.6
2018-12-19T18:14:51.834Z,49.6
2018-12-19T18:19:49.127Z,49.5
2018-12-19T18:24:45.793Z,49.5
2018-12-19T18:29:42.912Z,49.6
2018-12-19T18:34:39.676Z,49.5
2018-12-19T18:39:36.934Z,49.5
2018-12-19T18:44:34.178Z,49.5
2018-12-19T18:49:31.433Z,49.5
2018-12-19T18:54:27.678Z,49.5
2018-12-19T18:59:24.402Z,49.5
2018-12-19T19:04:21.497Z,49.4
2018-12-19T19:09:18.437Z,49.4
2018-12-19T19:14:15.356Z,49.4
2018-12-19T19:19:12.121Z,49.4
2018-12-19T19:24:09.289Z,49.4
2018-12-19T19:29:06.069Z,49.4
2018-12-19T19:34:02.975Z,49.4
2018-12-19T19:38:59.508Z,49.4
2018-12-19T19:43:56.748Z,49.4
2018-12-19T19:48:53.435Z,49.4
2018-12-19T19:53:50.350Z,49.4
2018-12-19T19:58:47.233Z,49.3
2018-12-19T20:03:43.702Z,49.3
2018-12-19T20:08:40.766Z,49.3
2018-12-19T20:13:38.232Z,49.3
2018-12-19T20:18:34.906Z,49.3
2018-12-19T20:23:31.532Z,49.3
2018-12-19T20:28:28.339Z,49.3
2018-12-19T20:33:26.414Z,49.3
2018-12-19T20:38:23.168Z,49.2
2018-12-19T20:43:19.692Z,49.2
2018-12-19T20:48:16.905Z,49.2
2018-12-19T20:53:13.647Z,49.2
2018-12-19T20:58:10.046Z,49.2
2018-12-19T21:03:07.151Z,49.2
2018-12-19T21:08:04.454Z,49.1
2018-12-19T21:13:01.188Z,49.1
2018-12-19T21:17:58.209Z,49.1
2018-12-19T21:22:55.564Z,49.1
2018-12-19T21:43:02.662Z,48.9
2018-12-19T21:47:59.535Z,49
2018-12-19T21:52:56.198Z,49
2018-12-19T21:57:53.160Z,49
2018-12-19T22:02:50.156Z,49
2018-12-19T22:07:47.360Z,48.9
2018-12-19T22:12:44.527Z,48.9
2018-12-19T22:17:41.130Z,48.9
2018-12-19T22:22:38.444Z,48.9
2018-12-19T22:27:35.483Z,48.9
2018-12-19T22:32:32.788Z,48.9
2018-12-19T22:37:29.633Z,48.9
2018-12-19T22:42:26.907Z,48.9
2018-12-19T22:47:23.635Z,48.8
2018-12-19T22:52:21.119Z,48.9
2018-12-19T22:57:17.643Z,48.8
2018-12-19T23:02:14.101Z,48.8
2018-12-19T23:07:11.314Z,48.8
2018-12-19T23:12:08.539Z,48.7
2018-12-19T23:17:05.374Z,48.7
2018-12-19T23:22:02.148Z,48.7
2018-12-19T23:26:58.850Z,48.7
2018-12-19T23:31:55.846Z,48.7
2018-12-19T23:36:52.817Z,48.6
2018-12-19T23:41:49.797Z,48.6
2018-12-19T23:46:46.702Z,48.6
2018-12-19T23:51:43.702Z,48.6
2018-12-19T23:56:40.159Z,48.6
